Time;durP1;ratioP1;P1;durP2;ratioP2;P2;SDS_P1;SDS_P2;PMS_P1;PMS_P2;Temp;Humidity;BMP_temperature;BMP_pressure;BME280_temperature;BME280_humidity;BME280_pressure;Samples;Min_cycle;Max_cycle;Signal;HPM_P1;HPM_P2
2021/08/09 00:02:05;;;;;;;0.40;0.20;;;12.90;99.90;;;;;;5110661;28;20759;-79
2021/08/09 00:04:31;;;;;;;0.40;0.30;;;13.30;99.90;;;;;;5094362;28;20462;-79
2021/08/09 00:06:57;;;;;;;0.40;0.30;;;13.30;99.90;;;;;;5094169;28;20382;-78
2021/08/09 00:09:23;;;;;;;0.40;0.20;;;13.30;99.90;;;;;;5094619;28;20375;-79
2021/08/09 00:11:48;;;;;;;0.40;0.20;;;14.20;99.90;;;;;;5109979;28;20447;-78
2021/08/09 00:14:14;;;;;;;0.40;0.20;;;13.40;99.90;;;;;;5110224;28;20387;-79
2021/08/09 00:16:40;;;;;;;0.40;0.20;;;13.30;99.90;;;;;;5076400;28;20385;-79
2021/08/09 00:19:06;;;;;;;0.40;0.20;;;13.60;99.90;;;;;;5094176;28;20874;-79
2021/08/09 00:21:31;;;;;;;0.40;0.20;;;13.30;99.90;;;;;;5076171;28;20402;-78
2021/08/09 00:23:57;;;;;;;0.40;0.30;;;13.40;99.90;;;;;;5093744;28;20389;-79
2021/08/09 00:26:23;;;;;;;0.40;0.30;;;13.40;99.90;;;;;;5076251;28;20465;-79
2021/08/09 00:28:49;;;;;;;0.40;0.22;;;13.30;99.90;;;;;;5093232;28;20420;-78
2021/08/09 00:31:15;;;;;;;0.40;0.20;;;13.30;99.90;;;;;;5094213;28;20387;-79
2021/08/09 00:33:40;;;;;;;0.40;0.30;;;13.70;99.90;;;;;;5093910;28;20410;-80
2021/08/09 00:36:06;;;;;;;0.40;0.30;;;13.40;99.90;;;;;;5093481;28;20379;-79
2021/08/09 00:38:32;;;;;;;0.40;0.27;;;13.40;99.90;;;;;;5093947;28;20389;-79
2021/08/09 00:40:58;;;;;;;0.40;0.30;;;13.60;99.90;;;;;;5093284;28;20416;-78
2021/08/09 00:43:24;;;;;;;0.40;0.20;;;13.40;99.90;;;;;;5094054;28;20835;-79
2021/08/09 00:45:50;;;;;;;0.40;0.30;;;13.30;99.90;;;;;;5093151;28;20378;-78
2021/08/09 00:48:15;;;;;;;0.40;0.20;;;13.70;99.90;;;;;;5094188;28;20381;-79
2021/08/09 00:50:41;;;;;;;0.40;0.30;;;13.10;99.90;;;;;;5093606;28;20386;-78
2021/08/09 00:53:07;;;;;;;0.40;0.20;;;13.40;99.90;;;;;;5093145;28;20382;-80
2021/08/09 00:55:33;;;;;;;0.40;0.20;;;13.40;99.90;;;;;;5093371;28;20375;-79
2021/08/09 00:57:59;;;;;;;0.40;0.20;;;13.40;99.90;;;;;;5092873;28;20382;-79
2021/08/09 01:00:25;;;;;;;0.40;0.30;;;13.20;99.90;;;;;;5093151;28;20500;-80
2021/08/09 01:02:50;;;;;;;0.40;0.20;;;13.20;99.90;;;;;;5093063;28;20946;-79
2021/08/09 01:05:16;;;;;;;0.40;0.20;;;13.20;99.90;;;;;;5092370;28;20451;-78
2021/08/09 01:07:55;;;;;;;0.40;0.30;;;13.10;99.90;;;;;;5093318;28;20844;-78
2021/08/09 01:10:47;;;;;;;0.40;0.20;;;13.10;99.90;;;;;;5093176;28;20858;-80
2021/08/09 01:13:37;;;;;;;0.40;0.20;;;13.20;99.90;;;;;;5093365;28;20392;-80
2021/08/09 01:16:10;;;;;;;0.40;0.30;;;13.10;99.90;;;;;;5092667;28;20382;-79
2021/08/09 01:18:38;;;;;;;0.40;0.20;;;13.20;99.90;;;;;;5093366;28;20362;-79
2021/08/09 01:21:05;;;;;;;0.40;0.30;;;13.20;99.90;;;;;;5092514;28;20402;-80
2021/08/09 01:24:23;;;;;;;0.40;0.20;;;13.10;99.90;;;;;;5108967;28;20939;-80
2021/08/09 01:27:04;;;;;;;0.40;0.20;;;13.00;99.90;;;;;;5047611;28;20390;-79
2021/08/09 01:29:33;;;;;;;0.40;0.30;;;12.90;99.90;;;;;;5092891;28;20452;-80
2021/08/09 01:32:01;;;;;;;0.40;0.20;;;13.30;99.90;;;;;;5092790;28;20485;-79
2021/08/09 01:34:28;;;;;;;0.40;0.20;;;12.90;99.90;;;;;;5092905;28;20378;-80
2021/08/09 01:36:56;;;;;;;0.40;0.20;;;13.10;99.90;;;;;;5092274;28;20410;-78
2021/08/09 01:39:22;;;;;;;0.40;0.20;;;13.00;99.90;;;;;;5092981;28;20381;-79
2021/08/09 01:41:50;;;;;;;0.40;0.20;;;13.00;99.90;;;;;;5091856;28;20993;-79
2021/08/09 01:44:16;;;;;;;0.40;0.20;;;12.90;99.90;;;;;;5092639;28;20386;-79
2021/08/09 01:46:43;;;;;;;0.40;0.20;;;13.00;99.90;;;;;;5092394;28;20900;-79
2021/08/09 01:49:09;;;;;;;0.40;0.30;;;12.90;99.90;;;;;;5092040;28;20397;-79
2021/08/09 01:51:35;;;;;;;0.40;0.30;;;13.00;99.90;;;;;;5092707;28;20418;-79
2021/08/09 01:54:02;;;;;;;0.40;0.20;;;13.00;99.90;;;;;;5107798;28;20847;-79
2021/08/09 01:56:29;;;;;;;0.40;0.20;;;13.30;99.90;;;;;;5074303;28;20428;-79
2021/08/09 01:58:55;;;;;;;0.40;0.20;;;12.90;99.90;;;;;;5091646;28;20390;-79
2021/08/09 02:01:21;;;;;;;0.40;0.20;;;13.60;99.90;;;;;;5092226;28;20413;-79
2021/08/09 02:03:47;;;;;;;0.40;0.20;;;13.10;99.90;;;;;;5092409;28;20378;-79
2021/08/09 02:06:14;;;;;;;0.40;0.20;;;13.00;99.90;;;;;;5092377;28;20846;-79
2021/08/09 02:08:40;;;;;;;0.40;0.30;;;12.90;99.90;;;;;;5092338;28;20405;-79
2021/08/09 02:11:18;;;;;;;0.40;0.20;;;13.10;99.90;;;;;;5091675;28;20378;-78
2021/08/09 02:14:00;;;;;;;0.40;0.20;;;12.90;99.90;;;;;;5091998;28;20394;-79
2021/08/09 02:16:35;;;;;;;0.40;0.20;;;12.90;99.90;;;;;;5091487;28;20439;-79
2021/08/09 02:19:16;;;;;;;0.40;0.20;;;13.00;99.90;;;;;;5091598;28;20407;-79
2021/08/09 02:21:58;;;;;;;0.40;0.20;;;12.70;99.90;;;;;;5091884;28;20430;-79
2021/08/09 02:24:30;;;;;;;0.40;0.25;;;13.10;99.90;;;;;;5092185;28;20466;-80
2021/08/09 02:27:10;;;;;;;0.40;0.20;;;12.90;99.90;;;;;;5091190;28;20878;-78
2021/08/09 02:29:41;;;;;;;0.40;0.30;;;13.60;99.90;;;;;;5091945;28;20402;-80
2021/08/09 02:32:08;;;;;;;0.40;0.20;;;12.90;99.90;;;;;;5091295;28;20379;-78
2021/08/09 02:34:36;;;;;;;0.40;0.20;;;12.90;99.90;;;;;;5091929;28;20465;-79
2021/08/09 02:37:07;;;;;;;0.40;0.28;;;13.00;99.90;;;;;;5091225;28;20416;-79
2021/08/09 02:39:33;;;;;;;0.40;0.20;;;12.90;99.90;;;;;;5091871;28;20381;-80
2021/08/09 02:42:00;;;;;;;0.40;0.20;;;12.90;99.90;;;;;;5091218;28;20410;-79
2021/08/09 02:44:27;;;;;;;0.40;0.20;;;12.90;99.90;;;;;;5091522;28;20388;-80
2021/08/09 02:46:55;;;;;;;0.40;0.20;;;12.90;99.90;;;;;;5091095;28;20378;-78
2021/08/09 02:49:21;;;;;;;0.40;0.20;;;12.90;99.90;;;;;;5091336;28;20859;-80
2021/08/09 02:51:47;;;;;;;0.40;0.20;;;13.00;99.90;;;;;;5091306;28;20929;-79
2021/08/09 02:54:17;;;;;;;0.40;0.20;;;13.00;99.90;;;;;;5072963;28;20436;-80
2021/08/09 02:56:44;;;;;;;0.40;0.20;;;13.10;99.90;;;;;;5091464;28;20378;-79
2021/08/09 02:59:10;;;;;;;0.40;0.20;;;13.00;99.90;;;;;;5072779;28;20416;-78
2021/08/09 03:01:36;;;;;;;0.40;0.30;;;13.10;99.90;;;;;;5091349;28;20414;-80
2021/08/09 03:04:05;;;;;;;0.40;0.20;;;13.00;99.90;;;;;;5072922;28;20765;-78
2021/08/09 03:06:32;;;;;;;0.40;0.30;;;13.00;99.90;;;;;;5091447;28;20370;-79
2021/08/09 03:08:59;;;;;;;0.40;0.20;;;13.40;99.90;;;;;;5090885;28;20780;-78
2021/08/09 03:11:25;;;;;;;0.40;0.20;;;13.10;99.90;;;;;;5091326;28;20378;-79
2021/08/09 03:13:51;;;;;;;0.40;0.20;;;13.20;99.90;;;;;;5073471;28;20956;-79
2021/08/09 03:16:17;;;;;;;0.40;0.20;;;12.60;99.90;;;;;;5091238;28;20366;-79
2021/08/09 03:18:43;;;;;;;0.40;0.20;;;12.90;99.90;;;;;;5091301;28;20385;-79
2021/08/09 03:21:09;;;;;;;0.40;0.20;;;13.00;99.90;;;;;;5090624;28;20401;-78
2021/08/09 03:23:35;;;;;;;0.40;0.30;;;13.00;99.90;;;;;;5091463;28;20374;-79
2021/08/09 03:26:01;;;;;;;0.40;0.22;;;13.00;99.90;;;;;;5090658;28;20385;-79
2021/08/09 03:28:27;;;;;;;0.40;0.20;;;13.20;99.90;;;;;;5091519;28;20453;-79
2021/08/09 03:30:53;;;;;;;0.40;0.20;;;12.90;99.90;;;;;;5094503;28;20396;-78
2021/08/09 03:33:18;;;;;;;0.40;0.20;;;12.90;99.90;;;;;;5095343;28;20389;-79
2021/08/09 03:35:44;;;;;;;0.40;0.20;;;12.80;99.90;;;;;;5095481;28;20874;-79
2021/08/09 03:38:10;;;;;;;0.40;0.20;;;12.90;99.90;;;;;;5094898;28;20461;-79
2021/08/09 03:40:35;;;;;;;0.40;0.20;;;12.80;99.90;;;;;;5095192;28;20398;-79
2021/08/09 03:43:04;;;;;;;0.40;0.20;;;12.80;99.90;;;;;;5076382;28;20862;-79
2021/08/09 03:45:29;;;;;;;0.40;0.20;;;12.90;99.90;;;;;;5095265;28;20725;-79
2021/08/09 03:47:55;;;;;;;0.40;0.20;;;12.90;99.90;;;;;;5094168;28;20378;-78
2021/08/09 03:50:21;;;;;;;0.40;0.20;;;12.90;99.90;;;;;;5095020;28;20385;-79
2021/08/09 03:52:52;;;;;;;0.40;0.20;;;12.80;99.90;;;;;;5094564;28;20389;-79
2021/08/09 03:55:18;;;;;;;0.40;0.20;;;12.60;99.90;;;;;;5094485;28;20378;-80
2021/08/09 03:57:44;;;;;;;0.40;0.20;;;12.90;99.90;;;;;;5094774;28;20378;-79
2021/08/09 04:00:11;;;;;;;0.40;0.20;;;12.90;99.90;;;;;;5075949;28;20398;-79
2021/08/09 04:02:37;;;;;;;0.40;0.20;;;12.90;99.90;;;;;;5094849;28;20385;-79
2021/08/09 04:05:04;;;;;;;0.40;0.20;;;13.00;99.90;;;;;;5110033;28;20935;-78
2021/08/09 04:07:30;;;;;;;0.40;0.30;;;12.90;99.90;;;;;;5094636;28;20392;-79
2021/08/09 04:09:56;;;;;;;0.40;0.20;;;12.90;99.90;;;;;;5094176;28;20799;-78
2021/08/09 04:12:22;;;;;;;0.40;0.30;;;13.00;99.90;;;;;;5076402;28;20386;-80
2021/08/09 04:14:48;;;;;;;0.40;0.20;;;12.70;99.90;;;;;;5094656;28;20452;-79
2021/08/09 04:17:14;;;;;;;0.40;0.20;;;12.80;99.90;;;;;;5093876;28;20389;-79
2021/08/09 04:19:39;;;;;;;0.40;0.20;;;12.60;99.90;;;;;;5094508;28;20431;-79
2021/08/09 04:22:05;;;;;;;0.40;0.20;;;12.80;99.90;;;;;;5093881;28;20747;-79
2021/08/09 04:24:31;;;;;;;0.40;0.30;;;12.60;99.90;;;;;;5094551;28;20464;-79
2021/08/09 04:26:57;;;;;;;0.40;0.20;;;12.70;99.90;;;;;;5093800;28;20504;-78
2021/08/09 04:29:22;;;;;;;0.40;0.20;;;12.80;99.90;;;;;;5076206;28;20417;-79
2021/08/09 04:31:48;;;;;;;0.40;0.20;;;12.70;99.90;;;;;;5093966;28;20401;-79
2021/08/09 04:34:14;;;;;;;0.40;0.30;;;12.70;99.90;;;;;;5093655;28;20382;-79
2021/08/09 04:36:40;;;;;;;0.40;0.22;;;12.90;99.90;;;;;;5094435;28;20370;-80
2021/08/09 04:39:05;;;;;;;0.40;0.20;;;12.80;99.90;;;;;;5093139;28;20378;-79
2021/08/09 04:41:31;;;;;;;0.40;0.20;;;13.00;99.90;;;;;;5094080;28;20402;-80
2021/08/09 04:43:57;;;;;;;0.40;0.22;;;12.80;99.90;;;;;;5093452;28;20389;-80
2021/08/09 04:46:23;;;;;;;0.40;0.20;;;12.80;99.90;;;;;;5094098;28;20380;-79
2021/08/09 04:48:48;;;;;;;0.40;0.20;;;12.90;99.90;;;;;;5093951;28;20378;-79
2021/08/09 04:51:14;;;;;;;0.40;0.30;;;12.90;99.90;;;;;;5093352;28;20884;-79
2021/08/09 04:53:40;;;;;;;0.40;0.27;;;12.90;99.90;;;;;;5093524;28;20428;-80
2021/08/09 04:56:05;;;;;;;0.40;0.20;;;13.30;99.90;;;;;;5093353;28;20379;-80
2021/08/09 04:58:31;;;;;;;0.40;0.20;;;13.00;99.90;;;;;;5093371;28;20390;-80
2021/08/09 05:00:56;;;;;;;0.40;0.20;;;13.00;99.90;;;;;;5093798;28;20459;-79
2021/08/09 05:03:22;;;;;;;0.40;0.20;;;13.00;99.90;;;;;;5093110;28;20435;-78
2021/08/09 05:05:48;;;;;;;0.40;0.20;;;13.10;99.90;;;;;;5093460;28;20503;-79
2021/08/09 05:08:14;;;;;;;0.40;0.20;;;13.40;99.90;;;;;;5092843;28;20382;-79
2021/08/09 05:10:39;;;;;;;0.40;0.30;;;13.10;99.90;;;;;;5093343;28;20938;-79
2021/08/09 05:13:05;;;;;;;0.40;0.30;;;13.00;99.90;;;;;;5092809;28;20385;-79
2021/08/09 05:15:33;;;;;;;0.40;0.20;;;13.00;99.90;;;;;;5093717;28;20370;-79
2021/08/09 05:17:58;;;;;;;0.40;0.20;;;13.10;99.90;;;;;;5093331;28;20381;-79
2021/08/09 05:20:24;;;;;;;0.40;0.20;;;13.60;99.90;;;;;;5093349;28;20770;-80
2021/08/09 05:22:50;;;;;;;0.40;0.20;;;13.20;99.90;;;;;;5108925;28;20489;-80
2021/08/09 05:25:15;;;;;;;0.40;0.20;;;13.20;99.90;;;;;;5092340;28;20366;-79
2021/08/09 05:27:42;;;;;;;0.40;0.20;;;13.20;99.90;;;;;;5092962;28;20378;-80
2021/08/09 05:30:09;;;;;;;0.40;0.30;;;13.30;99.90;;;;;;5074484;28;20422;-79
2021/08/09 05:32:36;;;;;;;0.40;0.30;;;13.30;99.90;;;;;;5093006;28;20406;-79
2021/08/09 05:35:04;;;;;;;0.40;0.30;;;13.40;99.90;;;;;;5092237;28;20371;-80
2021/08/09 05:37:31;;;;;;;0.40;0.30;;;13.50;99.90;;;;;;5092876;28;20377;-80
2021/08/09 05:39:58;;;;;;;0.40;0.20;;;13.70;99.90;;;;;;5092890;28;20417;-78
2021/08/09 05:42:24;;;;;;;0.40;0.20;;;13.90;99.90;;;;;;5092253;28;20422;-79
2021/08/09 05:44:50;;;;;;;0.40;0.20;;;13.90;99.90;;;;;;5092919;28;20428;-80
2021/08/09 05:47:15;;;;;;;0.40;0.20;;;14.00;99.90;;;;;;5091974;28;20421;-80
2021/08/09 05:49:41;;;;;;;0.40;0.30;;;14.00;99.90;;;;;;5092410;28;20935;-79
2021/08/09 05:52:07;;;;;;;0.40;0.30;;;14.50;99.90;;;;;;5091206;28;20382;-79
2021/08/09 05:54:32;;;;;;;0.40;0.20;;;14.20;99.90;;;;;;5092595;28;20374;-79
2021/08/09 05:56:58;;;;;;;0.40;0.20;;;14.10;99.90;;;;;;5092359;28;20550;-79
2021/08/09 05:59:24;;;;;;;0.40;0.20;;;14.20;99.90;;;;;;5091899;28;20386;-79
2021/08/09 06:01:52;;;;;;;0.40;0.20;;;14.10;99.90;;;;;;5074333;28;20406;-80
2021/08/09 06:04:18;;;;;;;0.40;0.20;;;14.30;99.90;;;;;;5092199;28;20461;-77
2021/08/09 06:06:43;;;;;;;0.40;0.23;;;14.20;99.90;;;;;;5092470;28;20961;-78
2021/08/09 06:09:09;;;;;;;0.40;0.30;;;14.30;99.90;;;;;;5107477;28;20385;-80
2021/08/09 06:11:35;;;;;;;0.40;0.30;;;14.40;99.90;;;;;;5092466;28;20382;-78
2021/08/09 06:14:00;;;;;;;0.40;0.20;;;14.50;99.90;;;;;;5092024;28;20381;-79
2021/08/09 06:16:27;;;;;;;0.40;0.30;;;14.60;99.90;;;;;;5091708;28;20451;-77
2021/08/09 06:18:54;;;;;;;0.40;0.20;;;14.80;99.90;;;;;;5092147;28;20453;-78
2021/08/09 06:21:20;;;;;;;0.40;0.30;;;14.50;99.90;;;;;;5073489;28;20808;-78
2021/08/09 06:23:45;;;;;;;0.40;0.30;;;14.70;99.90;;;;;;5092072;28;20406;-78
2021/08/09 06:26:11;;;;;;;0.40;0.20;;;14.80;99.90;;;;;;5091553;28;20374;-77
2021/08/09 06:28:37;;;;;;;0.40;0.20;;;14.70;99.90;;;;;;5091593;28;20402;-78
2021/08/09 06:31:03;;;;;;;0.40;0.20;;;14.90;99.90;;;;;;5091848;28;20394;-78
2021/08/09 06:33:28;;;;;;;0.40;0.20;;;15.60;99.90;;;;;;5092343;28;20406;-78
2021/08/09 06:35:54;;;;;;;0.40;0.20;;;15.00;99.90;;;;;;5092002;28;20406;-78
2021/08/09 06:38:20;;;;;;;0.40;0.30;;;15.10;99.90;;;;;;5090894;28;20507;-78
2021/08/09 06:40:45;;;;;;;0.40;0.30;;;15.30;99.90;;;;;;5091796;28;20902;-77
2021/08/09 06:43:12;;;;;;;0.40;0.20;;;15.20;99.90;;;;;;5091223;28;20454;-77
2021/08/09 06:45:42;;;;;;;0.40;0.20;;;15.30;99.90;;;;;;5073641;28;20398;-78
2021/08/09 06:48:10;;;;;;;0.40;0.20;;;15.40;99.90;;;;;;5091205;28;20878;-77
2021/08/09 06:50:36;;;;;;;0.40;0.30;;;15.50;99.90;;;;;;5091360;28;20422;-77
2021/08/09 06:53:02;;;;;;;0.40;0.30;;;15.60;99.90;;;;;;5091569;28;20834;-77
2021/08/09 06:55:29;;;;;;;0.40;0.30;;;15.70;99.90;;;;;;5090962;28;20418;-77
2021/08/09 06:57:54;;;;;;;0.40;0.20;;;15.80;99.90;;;;;;5091629;28;20371;-77
2021/08/09 07:00:20;;;;;;;0.40;0.20;;;15.90;99.90;;;;;;5090931;28;20428;-77
2021/08/09 07:02:46;;;;;;;0.40;0.20;;;16.10;99.90;;;;;;5091143;28;20474;-77
2021/08/09 07:05:12;;;;;;;0.40;0.30;;;16.10;99.90;;;;;;5090822;28;20726;-77
2021/08/09 07:07:42;;;;;;;0.40;0.30;;;16.30;99.90;;;;;;5091107;28;20389;-78
2021/08/09 07:10:08;;;;;;;0.40;0.20;;;16.30;99.90;;;;;;5090880;28;20386;-77
2021/08/09 07:12:34;;;;;;;0.40;0.20;;;16.40;99.90;;;;;;5091052;28;20434;-77
2021/08/09 07:15:00;;;;;;;0.40;0.20;;;16.40;99.90;;;;;;5091316;28;20370;-78
2021/08/09 07:17:25;;;;;;;0.40;0.20;;;16.50;99.90;;;;;;5090583;28;20878;-78
2021/08/09 07:19:51;;;;;;;0.40;0.20;;;16.50;99.90;;;;;;5091172;28;20865;-78
2021/08/09 07:22:19;;;;;;;0.40;0.27;;;16.50;99.90;;;;;;5090289;28;20405;-78
2021/08/09 07:24:45;;;;;;;0.40;0.28;;;16.70;99.90;;;;;;5091270;28;20457;-78
2021/08/09 07:27:16;;;;;;;0.40;0.30;;;16.80;99.90;;;;;;5090402;28;20413;-77
2021/08/09 07:29:41;;;;;;;0.40;0.30;;;16.90;99.90;;;;;;5090983;28;20459;-78
2021/08/09 07:32:07;;;;;;;0.40;0.30;;;16.90;99.90;;;;;;5090472;28;20869;-77
2021/08/09 07:34:33;;;;;;;0.40;0.30;;;17.20;99.90;;;;;;5090756;28;20381;-78
2021/08/09 07:36:59;;;;;;;0.40;0.20;;;17.20;99.90;;;;;;5091245;28;20374;-78
2021/08/09 07:39:24;;;;;;;0.40;0.20;;;17.40;99.90;;;;;;5090411;28;20381;-78
2021/08/09 07:41:50;;;;;;;0.40;0.20;;;17.40;99.90;;;;;;5073034;28;20405;-79
2021/08/09 07:44:16;;;;;;;0.40;0.30;;;17.50;99.90;;;;;;5090443;28;20731;-79
2021/08/09 07:46:41;;;;;;;0.40;0.20;;;17.70;99.90;;;;;;5090799;28;20393;-78
2021/08/09 07:49:07;;;;;;;0.40;0.30;;;18.00;99.90;;;;;;5090621;28;20913;-78
2021/08/09 07:51:32;;;;;;;0.40;0.20;;;18.10;99.90;;;;;;5090658;28;20382;-79
2021/08/09 07:53:58;;;;;;;0.40;0.25;;;18.30;99.90;;;;;;5090851;28;20378;-79
2021/08/09 07:56:24;;;;;;;0.40;0.30;;;18.40;99.90;;;;;;5072182;28;20379;-78
2021/08/09 07:58:49;;;;;;;0.40;0.20;;;18.50;99.90;;;;;;5090653;28;20482;-78
2021/08/09 08:01:15;;;;;;;0.40;0.30;;;18.50;99.90;;;;;;5090108;28;20485;-78
2021/08/09 08:03:41;;;;;;;0.40;0.30;;;18.50;99.90;;;;;;5091328;28;20388;-80
2021/08/09 08:06:06;;;;;;;0.40;0.30;;;18.60;99.90;;;;;;5090964;28;20777;-80
2021/08/09 08:08:32;;;;;;;0.40;0.30;;;18.70;99.90;;;;;;5090279;28;20386;-79
2021/08/09 08:10:58;;;;;;;0.40;0.20;;;18.60;99.90;;;;;;5090421;28;20476;-80
2021/08/09 08:13:24;;;;;;;0.40;0.20;;;18.70;99.90;;;;;;5090299;28;20382;-79
2021/08/09 08:15:49;;;;;;;0.40;0.30;;;18.90;99.90;;;;;;5093347;28;20378;-78
2021/08/09 08:18:15;;;;;;;0.40;0.20;;;18.90;99.90;;;;;;5093969;28;20374;-78
2021/08/09 08:20:41;;;;;;;0.40;0.20;;;18.80;99.90;;;;;;5094325;28;20406;-79
2021/08/09 08:23:06;;;;;;;0.40;0.20;;;19.00;99.90;;;;;;5094409;28;20393;-78
2021/08/09 08:25:32;;;;;;;0.40;0.20;;;19.00;99.90;;;;;;5093481;28;20747;-79
2021/08/09 08:27:59;;;;;;;0.40;0.30;;;19.00;99.90;;;;;;5094160;28;20433;-80
2021/08/09 08:30:24;;;;;;;0.40;0.20;;;19.30;99.90;;;;;;5093784;28;20886;-78
2021/08/09 08:32:50;;;;;;;0.40;0.30;;;19.30;99.90;;;;;;5094328;28;20473;-79
2021/08/09 08:35:17;;;;;;;0.40;0.30;;;19.30;99.90;;;;;;5092829;28;20483;-78
2021/08/09 08:37:43;;;;;;;0.40;0.20;;;19.40;99.90;;;;;;5094118;28;20386;-79
2021/08/09 08:40:09;;;;;;;0.40;0.20;;;19.30;99.90;;;;;;5093717;28;20374;-78
2021/08/09 08:42:35;;;;;;;0.40;0.20;;;19.20;99.90;;;;;;5093529;28;20381;-80
2021/08/09 08:45:03;;;;;;;0.40;0.30;;;19.30;99.90;;;;;;5093689;28;20378;-79
2021/08/09 08:47:29;;;;;;;0.40;0.30;;;19.30;99.90;;;;;;5093297;28;20374;-79
2021/08/09 08:49:55;;;;;;;0.40;0.20;;;19.40;99.90;;;;;;5075678;28;20394;-79
2021/08/09 08:52:21;;;;;;;0.40;0.30;;;19.50;99.90;;;;;;5093363;28;20378;-78
2021/08/09 08:54:47;;;;;;;0.40;0.27;;;19.40;99.90;;;;;;5093734;28;20389;-78
2021/08/09 08:57:21;;;;;;;0.40;0.20;;;19.50;99.90;;;;;;5093312;28;20723;-79
2021/08/09 08:59:47;;;;;;;0.40;0.30;;;20.00;99.90;;;;;;5093458;28;20386;-79
2021/08/09 09:02:34;;;;;;;0.40;0.30;;;20.00;99.90;;;;;;5093086;28;20949;-77
2021/08/09 09:05:12;;;;;;;0.40;0.25;;;20.10;99.90;;;;;;5093641;28;20418;-78
2021/08/09 09:07:52;;;;;;;0.40;0.20;;;20.10;99.90;;;;;;5093669;28;20929;-81
2021/08/09 09:10:30;;;;;;;0.40;0.20;;;19.80;99.90;;;;;;5092982;28;20457;-79
2021/08/09 09:13:04;;;;;;;0.40;0.20;;;19.80;99.90;;;;;;5075425;28;20781;-77
2021/08/09 09:15:30;;;;;;;0.40;0.20;;;19.90;99.90;;;;;;5092799;28;20741;-78
2021/08/09 09:17:56;;;;;;;0.40;0.20;;;19.80;99.90;;;;;;5093382;28;20450;-77
2021/08/09 09:20:31;;;;;;;0.40;0.20;;;19.90;99.90;;;;;;5092490;28;20377;-78
2021/08/09 09:23:17;;;;;;;0.40;0.20;;;20.10;99.90;;;;;;5075538;28;20394;-78
2021/08/09 09:25:47;;;;;;;0.40;0.20;;;20.00;99.90;;;;;;5092721;28;20425;-79
2021/08/09 09:28:33;;;;;;;0.40;0.30;;;19.80;99.90;;;;;;5092439;28;20402;-77
2021/08/09 09:31:06;;;;;;;0.40;0.30;;;19.80;99.90;;;;;;5093123;28;20509;-78
2021/08/09 09:33:32;;;;;;;0.40;0.20;;;19.90;99.90;;;;;;5092577;28;20382;-80
2021/08/09 09:36:02;;;;;;;0.40;0.30;;;19.90;99.90;;;;;;5092991;28;20420;-78
2021/08/09 09:38:28;;;;;;;0.40;0.30;;;20.00;99.90;;;;;;5092258;28;20461;-78
2021/08/09 09:41:06;;;;;;;0.40;0.20;;;19.80;99.90;;;;;;5092558;28;20408;-79
2021/08/09 09:43:41;;;;;;;0.40;0.20;;;19.90;99.90;;;;;;5092244;28;20390;-80
2021/08/09 09:46:07;;;;;;;0.40;0.20;;;20.30;99.90;;;;;;5092902;28;20420;-79
2021/08/09 09:48:34;;;;;;;0.40;0.30;;;20.00;99.90;;;;;;5092230;28;20515;-79
2021/08/09 09:51:14;;;;;;;0.40;0.20;;;20.10;99.90;;;;;;5092702;28;20743;-80
2021/08/09 09:53:41;;;;;;;0.40;0.27;;;20.20;99.90;;;;;;5092053;28;20378;-79
2021/08/09 09:56:07;;;;;;;0.40;0.28;;;20.30;99.90;;;;;;5092582;28;20374;-79
2021/08/09 09:58:35;;;;;;;0.40;0.30;;;20.50;99.90;;;;;;5091955;28;20375;-77
2021/08/09 10:01:02;;;;;;;0.40;0.20;;;20.40;99.90;;;;;;5092266;28;20490;-80
2021/08/09 10:03:29;;;;;;;0.40;0.20;;;20.60;99.90;;;;;;5091824;28;20394;-78
2021/08/09 10:05:55;;;;;;;0.40;0.20;;;20.80;99.90;;;;;;5092394;28;20381;-80
2021/08/09 10:08:24;;;;;;;0.40;0.20;;;20.70;99.90;;;;;;5091525;28;20393;-76
2021/08/09 10:10:52;;;;;;;0.40;0.30;;;20.80;99.90;;;;;;5092235;28;20378;-78
2021/08/09 10:13:20;;;;;;;0.40;0.20;;;20.90;99.90;;;;;;5073481;28;20390;-78
2021/08/09 10:15:54;;;;;;;0.40;0.30;;;20.80;99.90;;;;;;5092239;28;20385;-78
2021/08/09 10:18:48;;;;;;;0.40;0.30;;;21.00;99.90;;;;;;5091447;28;20366;-76
2021/08/09 10:21:14;;;;;;;0.40;0.30;;;21.30;99.90;;;;;;5087845;28;20504;-80
2021/08/09 10:23:45;;;;;;;0.40;0.20;;;21.10;99.90;;;;;;5091472;28;20464;-80
2021/08/09 10:26:21;;;;;;;0.40;0.30;;;21.10;99.90;;;;;;5092014;28;20383;-81
2021/08/09 10:28:53;;;;;;;0.40;0.20;;;21.00;97.90;;;;;;5107451;28;20414;-79
2021/08/09 10:31:25;;;;;;;0.40;0.20;;;21.40;96.80;;;;;;5091257;28;20398;-78
2021/08/09 10:33:53;;;;;;;0.40;0.20;;;21.70;93.60;;;;;;5091766;28;20390;-80
2021/08/09 10:36:21;;;;;;;0.40;0.20;;;21.70;92.40;;;;;;5090917;28;20770;-77
2021/08/09 10:39:00;;;;;;;0.40;0.20;;;21.70;90.90;;;;;;5073110;28;20394;-76
2021/08/09 10:41:35;;;;;;;0.40;0.30;;;21.20;94.30;;;;;;5091251;28;20413;-76
2021/08/09 10:44:07;;;;;;;0.40;0.30;;;21.80;89.90;;;;;;5091870;28;20378;-81
2021/08/09 10:46:40;;;;;;;0.40;0.20;;;21.90;87.90;;;;;;5091101;28;20386;-77
2021/08/09 10:49:07;;;;;;;0.40;0.20;;;22.00;87.60;;;;;;5091842;28;20378;-79
2021/08/09 10:51:51;;;;;;;0.40;0.20;;;22.30;89.80;;;;;;5090991;28;20386;-76
2021/08/09 10:54:31;;;;;;;0.40;0.30;;;22.30;88.40;;;;;;5091719;28;20382;-79
2021/08/09 10:56:57;;;;;;;0.40;0.30;;;22.20;86.60;;;;;;5091424;28;20370;-77
2021/08/09 10:59:42;;;;;;;0.40;0.20;;;22.20;85.50;;;;;;5090964;28;20380;-77
2021/08/09 11:02:25;;;;;;;0.40;0.20;;;22.10;83.10;;;;;;5091163;28;20441;-76
2021/08/09 11:05:15;;;;;;;0.40;0.20;;;22.60;90.20;;;;;;5091413;28;20397;-78
2021/08/09 11:07:42;;;;;;;0.40;0.20;;;22.00;84.10;;;;;;5090628;28;20401;-77
2021/08/09 11:10:09;;;;;;;0.40;0.30;;;22.30;89.90;;;;;;5106969;28;20386;-77
2021/08/09 11:12:59;;;;;;;0.40;0.20;;;22.40;89.10;;;;;;5090623;28;20378;-78
2021/08/09 11:15:25;;;;;;;0.40;0.30;;;22.50;83.90;;;;;;5090724;28;20373;-77
2021/08/09 11:17:57;;;;;;;0.40;0.30;;;22.60;85.50;;;;;;5090950;28;20858;-79
2021/08/09 11:20:32;;;;;;;0.40;0.30;;;22.70;82.00;;;;;;5090640;28;20397;-76
2021/08/09 11:23:08;;;;;;;0.40;0.20;;;22.40;84.20;;;;;;5091396;28;20396;-77
2021/08/09 11:25:46;;;;;;;0.40;0.20;;;22.70;81.00;;;;;;5090597;28;20439;-79
2021/08/09 11:28:16;;;;;;;0.40;0.20;;;22.90;80.80;;;;;;5090583;28;20889;-77
2021/08/09 11:30:47;;;;;;;0.40;0.20;;;22.70;80.40;;;;;;5090581;28;20849;-76
2021/08/09 11:33:35;;;;;;;0.40;0.20;;;23.10;81.70;;;;;;5091179;28;20416;-79
2021/08/09 11:36:13;;;;;;;0.40;0.20;;;23.30;82.50;;;;;;5091175;28;20461;-77
2021/08/09 11:38:49;;;;;;;0.40;0.20;;;23.40;81.80;;;;;;5090519;28;20378;-75
2021/08/09 11:41:17;;;;;;;0.40;0.30;;;23.50;76.10;;;;;;5091236;28;20452;-75
2021/08/09 11:43:43;;;;;;;0.40;0.20;;;23.40;78.00;;;;;;5090517;28;20382;-79
2021/08/09 11:46:13;;;;;;;0.40;0.20;;;23.70;76.50;;;;;;5091222;28;20381;-81
2021/08/09 11:48:41;;;;;;;0.40;0.20;;;23.70;74.50;;;;;;5090219;28;20382;-77
2021/08/09 11:51:12;;;;;;;0.40;0.30;;;24.40;73.30;;;;;;5094422;28;20435;-77
2021/08/09 11:53:39;;;;;;;0.40;0.20;;;24.30;72.20;;;;;;5094360;28;20382;-80
2021/08/09 11:56:06;;;;;;;0.40;0.30;;;24.70;70.30;;;;;;5094943;28;20382;-81
2021/08/09 11:58:32;;;;;;;0.40;0.20;;;24.80;68.30;;;;;;5094306;28;20382;-78
2021/08/09 12:00:58;;;;;;;0.40;0.30;;;24.40;69.90;;;;;;5094800;28;20505;-77
2021/08/09 12:03:27;;;;;;;0.40;0.20;;;24.80;74.90;;;;;;5094205;28;20895;-76
2021/08/09 12:05:57;;;;;;;0.40;0.20;;;24.70;69.40;;;;;;5094784;28;20406;-75
2021/08/09 12:08:24;;;;;;;0.40;0.30;;;24.80;68.80;;;;;;5094240;28;20386;-79
2021/08/09 12:10:50;;;;;;;0.40;0.20;;;23.90;70.80;;;;;;5094474;28;20933;-80
2021/08/09 12:13:25;;;;;;;0.40;0.30;;;24.80;72.10;;;;;;5094517;28;20381;-77
2021/08/09 12:16:06;;;;;;;0.40;0.20;;;25.00;69.60;;;;;;5094644;28;20386;-79
2021/08/09 12:18:32;;;;;;;0.40;0.30;;;25.00;69.40;;;;;;5093853;28;20386;-79
2021/08/09 12:21:14;;;;;;;0.40;0.20;;;25.10;73.90;;;;;;5094002;28;20409;-77
2021/08/09 12:23:57;;;;;;;0.40;0.20;;;25.00;74.60;;;;;;5093744;28;20758;-77
2021/08/09 12:26:33;;;;;;;0.40;0.30;;;24.60;75.00;;;;;;5094412;28;20704;-77
2021/08/09 12:29:01;;;;;;;0.40;0.30;;;24.10;70.60;;;;;;5094272;28;20898;-75
2021/08/09 12:31:32;;;;;;;0.40;0.30;;;24.10;71.80;;;;;;5093711;28;20390;-76
2021/08/09 12:34:09;;;;;;;0.40;0.30;;;24.20;73.50;;;;;;5094225;28;20436;-78
2021/08/09 12:36:36;;;;;;;0.40;0.30;;;23.80;72.30;;;;;;5093592;28;20769;-77
2021/08/09 12:39:03;;;;;;;0.40;0.30;;;23.80;79.00;;;;;;5094127;28;20378;-79
2021/08/09 12:41:30;;;;;;;0.40;0.30;;;23.50;79.70;;;;;;5109274;28;20409;-78
2021/08/09 12:43:59;;;;;;;0.40;0.30;;;23.90;78.40;;;;;;5093958;28;20457;-78
2021/08/09 12:46:25;;;;;;;0.40;0.20;;;23.90;78.10;;;;;;5094011;28;20378;-78
2021/08/09 12:48:52;;;;;;;0.40;0.30;;;24.00;74.90;;;;;;5093645;28;20386;-78
2021/08/09 12:51:19;;;;;;;0.40;0.30;;;24.00;75.00;;;;;;5093631;28;20435;-76
2021/08/09 12:53:45;;;;;;;0.40;0.30;;;23.90;74.70;;;;;;5075101;28;20687;-75
2021/08/09 12:56:12;;;;;;;0.40;0.28;;;23.40;76.50;;;;;;5093794;28;20400;-74